Time,TemperatureF,DewpointF,PressureIn,WindDirection,WindDirectionDegrees,WindSpeedMPH,WindSpeedGustMPH,Humidity,HourlyPrecipIn,Conditions,Clouds,dailyrainin,SolarRadiationWatts/m^2,SoftwareType,DateUTC
2013-06-24 01:13:00,47.0,30.0,-100.00,WNW,292,0.0,4.0,52,-99.99,,,0.00,0.000000,,2013-06-24 08:13:00,
2013-06-24 01:34:00,49.0,31.0,-100.00,WNW,288,0.0,6.0,50,-99.99,,,0.00,0.000000,,2013-06-24 08:34:00,
2013-06-24 02:05:00,49.0,31.0,-100.00,WNW,288,0.0,6.0,50,-99.99,,,0.00,0.000000,,2013-06-24 09:05:00,
2013-06-24 02:14:00,49.0,31.0,-100.00,WNW,288,0.0,6.0,50,-99.99,,,0.00,0.000000,,2013-06-24 09:14:00,
2013-06-24 02:34:00,48.0,31.0,-100.00,NE,54,0.0,4.0,52,0.00,,,0.00,0.000000,,2013-06-24 09:34:00,
2013-06-24 03:02:00,48.0,31.0,-100.00,NE,54,0.0,4.0,52,0.00,,,0.00,0.000000,,2013-06-24 10:02:00,
2013-06-24 03:13:00,48.0,31.0,-100.00,NE,54,0.0,4.0,52,0.00,,,0.00,0.000000,,2013-06-24 10:13:00,
2013-06-24 03:22:00,48.0,31.0,-100.00,NE,54,0.0,4.0,52,0.00,,,0.00,0.000000,,2013-06-24 10:22:00,
2013-06-24 03:34:00,47.0,30.0,-100.00,West,278,0.0,5.0,51,0.00,,,0.00,0.000000,,2013-06-24 10:34:00,
2013-06-24 04:02:00,47.0,30.0,-100.00,West,278,0.0,5.0,51,0.00,,,0.00,0.000000,,2013-06-24 11:02:00,
2013-06-24 04:25:00,47.0,30.0,-100.00,West,278,0.0,5.0,51,0.00,,,0.00,0.000000,,2013-06-24 11:25:00,
2013-06-24 04:34:00,47.0,29.0,-100.00,WNW,295,0.0,5.0,49,0.00,,,0.00,0.000000,,2013-06-24 11:34:00,
2013-06-24 05:03:00,47.0,29.0,-100.00,WNW,295,0.0,5.0,49,0.00,,,0.00,0.000000,,2013-06-24 12:03:00,
2013-06-24 05:14:00,47.0,29.0,-100.00,WNW,295,0.0,5.0,49,0.00,,,0.00,0.000000,,2013-06-24 12:14:00,
2013-06-24 05:23:00,47.0,29.0,-100.00,WNW,295,0.0,5.0,49,0.00,,,0.00,0.000000,,2013-06-24 12:23:00,
2013-06-24 06:04:00,50.0,28.0,-100.00,East,94,0.0,6.0,42,0.00,,,0.00,0.000000,,2013-06-24 13:04:00,
2013-06-24 06:13:00,50.0,28.0,-100.00,East,94,0.0,6.0,42,0.00,,,0.00,0.000000,,2013-06-24 13:13:00,
2013-06-24 06:22:00,50.0,28.0,-100.00,East,94,0.0,6.0,42,0.00,,,0.00,0.000000,,2013-06-24 13:22:00,
2013-06-24 06:33:00,50.0,28.0,-100.00,East,94,0.0,6.0,42,0.00,,,0.00,0.000000,,2013-06-24 13:33:00,
2013-06-24 06:34:00,51.0,28.0,-100.00,SE,125,1.0,11.0,40,0.00,,,0.00,18.000000,,2013-06-24 13:34:00,
2013-06-24 07:14:00,51.0,28.0,-100.00,SE,125,1.0,11.0,40,0.00,,,0.00,18.000000,,2013-06-24 14:14:00,
2013-06-24 07:22:00,51.0,28.0,-100.00,SE,125,1.0,11.0,40,0.00,,,0.00,18.000000,,2013-06-24 14:22:00,
2013-06-24 07:34:00,54.0,31.0,-100.00,NW,323,2.0,10.0,42,0.00,,,0.00,100.000000,,2013-06-24 14:34:00,
2013-06-24 08:04:00,54.0,31.0,-100.00,NW,323,2.0,10.0,42,0.00,,,0.00,100.000000,,2013-06-24 15:04:00,
2013-06-24 08:12:00,54.0,31.0,-100.00,NW,323,2.0,10.0,42,0.00,,,0.00,100.000000,,2013-06-24 15:12:00,
2013-06-24 08:25:00,54.0,31.0,-100.00,NW,323,2.0,10.0,42,0.00,,,0.00,100.000000,,2013-06-24 15:25:00,
2013-06-24 08:34:00,61.0,31.0,-100.00,SE,132,2.0,9.0,32,0.00,,,0.00,492.000000,,2013-06-24 15:34:00,
2013-06-24 09:03:00,61.0,31.0,-100.00,SE,132,2.0,9.0,32,0.00,,,0.00,492.000000,,2013-06-24 16:03:00,
2013-06-24 09:12:00,61.0,31.0,-100.00,SE,132,2.0,9.0,32,0.00,,,0.00,492.000000,,2013-06-24 16:12:00,
2013-06-24 09:23:00,61.0,31.0,-100.00,SE,132,2.0,9.0,32,0.00,,,0.00,492.000000,,2013-06-24 16:23:00,
2013-06-24 09:34:00,60.0,31.0,-100.00,NE,49,3.0,11.0,33,0.00,,,0.00,577.000000,,2013-06-24 16:34:00,
2013-06-24 10:23:00,60.0,31.0,-100.00,NE,49,3.0,11.0,33,0.00,,,0.00,577.000000,,2013-06-24 17:23:00,
2013-06-24 10:34:00,64.0,36.0,-100.00,WSW,240,7.0,15.0,35,0.00,,,0.00,908.000000,,2013-06-24 17:34:00,
2013-06-24 11:02:00,64.0,36.0,-100.00,WSW,240,7.0,15.0,35,0.00,,,0.00,908.000000,,2013-06-24 18:02:00,
2013-06-24 11:14:00,64.0,36.0,-100.00,WSW,240,7.0,15.0,35,0.00,,,0.00,908.000000,,2013-06-24 18:14:00,
2013-06-24 11:23:00,64.0,36.0,-100.00,WSW,240,7.0,15.0,35,0.00,,,0.00,908.000000,,2013-06-24 18:23:00,
2013-06-24 11:34:00,66.0,42.0,-100.00,ESE,114,7.0,14.0,41,0.00,,,0.00,995.000000,,2013-06-24 18:34:00,
2013-06-24 12:05:00,66.0,42.0,-100.00,ESE,114,7.0,14.0,41,0.00,,,0.00,995.000000,,2013-06-24 19:05:00,
2013-06-24 12:12:00,66.0,42.0,-100.00,ESE,114,7.0,14.0,41,0.00,,,0.00,995.000000,,2013-06-24 19:12:00,
2013-06-24 12:24:00,66.0,42.0,-100.00,ESE,114,7.0,14.0,41,0.00,,,0.00,995.000000,,2013-06-24 19:24:00,
2013-06-24 13:03:00,66.0,41.0,-100.00,SE,124,7.0,16.0,40,0.00,,,0.00,993.000000,,2013-06-24 20:03:00,
2013-06-24 13:12:00,66.0,41.0,-100.00,SE,124,7.0,16.0,40,0.00,,,0.00,993.000000,,2013-06-24 20:12:00,
2013-06-24 13:22:00,66.0,41.0,-100.00,SE,124,7.0,16.0,40,0.00,,,0.00,993.000000,,2013-06-24 20:22:00,
2013-06-24 13:33:00,66.0,41.0,-100.00,SE,124,7.0,16.0,40,0.00,,,0.00,993.000000,,2013-06-24 20:33:00,
2013-06-24 13:34:00,63.0,41.0,-100.00,ESE,116,8.0,18.0,45,0.00,,,0.00,904.000000,,2013-06-24 20:34:00,
2013-06-24 14:03:00,63.0,41.0,-100.00,ESE,116,8.0,18.0,45,0.00,,,0.00,904.000000,,2013-06-24 21:03:00,
2013-06-24 14:12:00,63.0,41.0,-100.00,ESE,116,8.0,18.0,45,0.00,,,0.00,904.000000,,2013-06-24 21:12:00,
2013-06-24 14:23:00,63.0,41.0,-100.00,ESE,116,8.0,18.0,45,0.00,,,0.00,904.000000,,2013-06-24 21:23:00,
2013-06-24 14:34:00,66.0,45.0,-100.00,ESE,107,8.0,16.0,46,0.00,,,0.00,992.000000,,2013-06-24 21:34:00,
2013-06-24 15:04:00,66.0,45.0,-100.00,ESE,107,8.0,16.0,46,0.00,,,0.00,992.000000,,2013-06-24 22:04:00,
2013-06-24 15:13:00,66.0,45.0,-100.00,ESE,107,8.0,16.0,46,0.00,,,0.00,992.000000,,2013-06-24 22:13:00,
2013-06-24 15:23:00,66.0,45.0,-100.00,ESE,107,8.0,16.0,46,0.00,,,0.00,992.000000,,2013-06-24 22:23:00,
2013-06-24 16:04:00,67.0,43.0,-100.00,NE,37,6.0,15.0,42,0.00,,,0.00,980.000000,,2013-06-24 23:04:00,
2013-06-24 16:11:00,67.0,43.0,-100.00,NE,37,6.0,15.0,42,0.00,,,0.00,980.000000,,2013-06-24 23:11:00,
2013-06-24 16:23:00,67.0,43.0,-100.00,NE,37,6.0,15.0,42,0.00,,,0.00,980.000000,,2013-06-24 23:23:00,
2013-06-24 16:33:00,67.0,43.0,-100.00,NE,37,6.0,15.0,42,0.00,,,0.00,980.000000,,2013-06-24 23:33:00,
2013-06-24 17:02:00,66.0,43.0,-100.00,ESE,110,7.0,14.0,43,0.00,,,0.00,901.000000,,2013-06-25 00:02:00,
2013-06-24 17:12:00,66.0,43.0,-100.00,ESE,110,7.0,14.0,43,0.00,,,0.00,901.000000,,2013-06-25 00:12:00,
2013-06-24 17:22:00,66.0,43.0,-100.00,ESE,110,7.0,14.0,43,0.00,,,0.00,901.000000,,2013-06-25 00:22:00,
2013-06-24 17:33:00,66.0,43.0,-100.00,ESE,110,7.0,14.0,43,0.00,,,0.00,901.000000,,2013-06-25 00:33:00,
2013-06-24 18:03:00,64.0,43.0,-100.00,ESE,113,5.0,18.0,47,0.00,,,0.00,679.000000,,2013-06-25 01:03:00,
2013-06-24 18:13:00,64.0,43.0,-100.00,ESE,113,5.0,18.0,47,0.00,,,0.00,679.000000,,2013-06-25 01:13:00,
2013-06-24 18:23:00,64.0,43.0,-100.00,ESE,113,5.0,18.0,47,0.00,,,0.00,679.000000,,2013-06-25 01:23:00,
2013-06-24 18:33:00,64.0,43.0,-100.00,ESE,113,5.0,18.0,47,0.00,,,0.00,679.000000,,2013-06-25 01:33:00,
2013-06-24 18:34:00,59.0,42.0,-100.00,ESE,121,4.0,13.0,54,0.00,,,0.00,339.000000,,2013-06-25 01:34:00,
2013-06-24 19:03:00,59.0,42.0,-100.00,ESE,121,4.0,13.0,54,0.00,,,0.00,339.000000,,2013-06-25 02:03:00,
2013-06-24 19:13:00,59.0,42.0,-100.00,ESE,121,4.0,13.0,54,0.00,,,0.00,339.000000,,2013-06-25 02:13:00,
2013-06-24 19:24:00,59.0,42.0,-100.00,ESE,121,4.0,13.0,54,0.00,,,0.00,339.000000,,2013-06-25 02:24:00,
2013-06-24 20:04:00,55.0,43.0,-100.00,SSE,157,0.0,13.0,63,0.00,,,0.00,22.000000,,2013-06-25 03:04:00,
2013-06-24 20:12:00,55.0,43.0,-100.00,SSE,157,0.0,13.0,63,0.00,,,0.00,22.000000,,2013-06-25 03:12:00,
2013-06-24 21:01:00,52.0,43.0,-100.00,SSW,206,0.0,5.0,71,0.00,,,0.00,3.000000,,2013-06-25 04:01:00,
2013-06-24 21:11:00,52.0,43.0,-100.00,SSW,206,0.0,5.0,71,0.00,,,0.00,3.000000,,2013-06-25 04:11:00,
2013-06-24 21:22:00,52.0,43.0,-100.00,SSW,206,0.0,5.0,71,0.00,,,0.00,3.000000,,2013-06-25 04:22:00,
2013-06-24 21:33:00,52.0,43.0,-100.00,SSW,206,0.0,5.0,71,0.00,,,0.00,3.000000,,2013-06-25 04:33:00,
2013-06-24 22:01:00,50.0,41.0,-100.00,West,280,0.0,4.0,72,0.00,,,0.00,0.000000,,2013-06-25 05:01:00,
2013-06-24 22:11:00,50.0,41.0,-100.00,West,280,0.0,4.0,72,0.00,,,0.00,0.000000,,2013-06-25 05:11:00,
2013-06-24 22:22:00,50.0,41.0,-100.00,West,280,0.0,4.0,72,0.00,,,0.00,0.000000,,2013-06-25 05:22:00,
2013-06-24 22:32:00,50.0,41.0,-100.00,West,280,0.0,4.0,72,0.00,,,0.00,0.000000,,2013-06-25 05:32:00,
2013-06-24 23:01:00,49.0,40.0,-100.00,WNW,290,0.0,4.0,71,0.00,,,0.00,0.000000,,2013-06-25 06:01:00,
2013-06-24 23:11:00,49.0,40.0,-100.00,WNW,290,0.0,4.0,71,0.00,,,0.00,0.000000,,2013-06-25 06:11:00,
2013-06-24 23:21:00,49.0,40.0,-100.00,WNW,290,0.0,4.0,71,0.00,,,0.00,0.000000,,2013-06-25 06:21:00,
2013-06-24 23:33:00,49.0,40.0,-100.00,WNW,290,0.0,4.0,71,0.00,,,0.00,0.000000,,2013-06-25 06:33:00,